sensor_id;sensor_type;location;lat;lon;timestamp;P1;durP1;ratioP1;P2;durP2;ratioP2
1106;SDS011;540;49.448;8.612;2023-07-08T00:02:13;10.93;;;4.97;;
1106;SDS011;540;49.448;8.612;2023-07-08T00:04:41;9.48;;;5.03;;
1106;SDS011;540;49.448;8.612;2023-07-08T00:07:10;8.60;;;5.05;;
1106;SDS011;540;49.448;8.612;2023-07-08T00:09:39;8.52;;;4.95;;
1106;SDS011;540;49.448;8.612;2023-07-08T00:12:10;9.43;;;5.43;;
1106;SDS011;540;49.448;8.612;2023-07-08T00:14:38;8.48;;;4.45;;
1106;SDS011;540;49.448;8.612;2023-07-08T00:17:10;6.95;;;4.13;;
1106;SDS011;540;49.448;8.612;2023-07-08T00:19:39;8.63;;;5.45;;
1106;SDS011;540;49.448;8.612;2023-07-08T00:22:08;8.75;;;5.47;;
1106;SDS011;540;49.448;8.612;2023-07-08T00:24:39;7.40;;;4.45;;
1106;SDS011;540;49.448;8.612;2023-07-08T00:27:09;8.88;;;4.35;;
1106;SDS011;540;49.448;8.612;2023-07-08T00:29:38;8.93;;;4.45;;
1106;SDS011;540;49.448;8.612;2023-07-08T00:32:10;7.32;;;4.72;;
1106;SDS011;540;49.448;8.612;2023-07-08T00:34:39;9.48;;;5.78;;
1106;SDS011;540;49.448;8.612;2023-07-08T00:37:09;7.75;;;4.68;;
1106;SDS011;540;49.448;8.612;2023-07-08T00:39:38;7.07;;;4.43;;
1106;SDS011;540;49.448;8.612;2023-07-08T00:42:13;6.80;;;4.70;;
1106;SDS011;540;49.448;8.612;2023-07-08T00:44:43;7.57;;;4.53;;
1106;SDS011;540;49.448;8.612;2023-07-08T00:47:12;8.02;;;5.13;;
1106;SDS011;540;49.448;8.612;2023-07-08T00:49:43;6.85;;;4.63;;
1106;SDS011;540;49.448;8.612;2023-07-08T00:52:15;9.80;;;4.93;;
1106;SDS011;540;49.448;8.612;2023-07-08T00:54:45;6.78;;;4.30;;
1106;SDS011;540;49.448;8.612;2023-07-08T00:57:14;7.18;;;4.38;;
1106;SDS011;540;49.448;8.612;2023-07-08T00:59:43;9.10;;;5.25;;
1106;SDS011;540;49.448;8.612;2023-07-08T01:02:15;6.25;;;3.95;;
1106;SDS011;540;49.448;8.612;2023-07-08T01:04:48;7.40;;;4.50;;
1106;SDS011;540;49.448;8.612;2023-07-08T01:07:19;8.32;;;4.78;;
1106;SDS011;540;49.448;8.612;2023-07-08T01:09:51;6.80;;;4.25;;
1106;SDS011;540;49.448;8.612;2023-07-08T01:12:23;8.30;;;4.03;;
1106;SDS011;540;49.448;8.612;2023-07-08T01:14:57;7.15;;;4.53;;
1106;SDS011;540;49.448;8.612;2023-07-08T01:17:28;6.22;;;4.40;;
1106;SDS011;540;49.448;8.612;2023-07-08T01:19:58;7.78;;;4.68;;
1106;SDS011;540;49.448;8.612;2023-07-08T01:22:32;8.68;;;4.75;;
1106;SDS011;540;49.448;8.612;2023-07-08T01:25:02;8.93;;;4.75;;
1106;SDS011;540;49.448;8.612;2023-07-08T01:27:31;10.40;;;5.13;;
1106;SDS011;540;49.448;8.612;2023-07-08T01:30:02;9.68;;;4.00;;
1106;SDS011;540;49.448;8.612;2023-07-08T01:32:31;9.27;;;5.50;;
1106;SDS011;540;49.448;8.612;2023-07-08T01:35:01;6.35;;;4.22;;
1106;SDS011;540;49.448;8.612;2023-07-08T01:37:33;6.30;;;4.65;;
1106;SDS011;540;49.448;8.612;2023-07-08T01:40:16;8.68;;;5.00;;
1106;SDS011;540;49.448;8.612;2023-07-08T01:42:50;7.45;;;4.78;;
1106;SDS011;540;49.448;8.612;2023-07-08T01:45:20;9.27;;;5.13;;
1106;SDS011;540;49.448;8.612;2023-07-08T01:47:50;8.95;;;5.40;;
1106;SDS011;540;49.448;8.612;2023-07-08T01:50:20;8.25;;;4.88;;
1106;SDS011;540;49.448;8.612;2023-07-08T01:52:52;8.10;;;5.03;;
1106;SDS011;540;49.448;8.612;2023-07-08T01:55:23;8.20;;;4.38;;
1106;SDS011;540;49.448;8.612;2023-07-08T01:57:52;8.90;;;5.03;;
1106;SDS011;540;49.448;8.612;2023-07-08T02:00:20;8.52;;;5.13;;
1106;SDS011;540;49.448;8.612;2023-07-08T02:02:49;7.38;;;4.70;;
1106;SDS011;540;49.448;8.612;2023-07-08T02:05:18;7.28;;;4.72;;
1106;SDS011;540;49.448;8.612;2023-07-08T02:07:46;8.57;;;4.65;;
1106;SDS011;540;49.448;8.612;2023-07-08T02:10:15;7.18;;;4.47;;
1106;SDS011;540;49.448;8.612;2023-07-08T02:12:43;6.63;;;4.45;;
1106;SDS011;540;49.448;8.612;2023-07-08T02:15:11;8.23;;;4.35;;
1106;SDS011;540;49.448;8.612;2023-07-08T02:17:39;8.43;;;4.95;;
1106;SDS011;540;49.448;8.612;2023-07-08T02:20:07;8.20;;;4.85;;
1106;SDS011;540;49.448;8.612;2023-07-08T02:22:35;9.18;;;4.82;;
1106;SDS011;540;49.448;8.612;2023-07-08T02:25:04;8.13;;;4.68;;
1106;SDS011;540;49.448;8.612;2023-07-08T02:27:34;7.85;;;4.60;;
1106;SDS011;540;49.448;8.612;2023-07-08T02:30:02;7.35;;;4.63;;
1106;SDS011;540;49.448;8.612;2023-07-08T02:32:30;11.43;;;5.57;;
1106;SDS011;540;49.448;8.612;2023-07-08T02:35:01;8.88;;;5.70;;
1106;SDS011;540;49.448;8.612;2023-07-08T02:37:30;9.50;;;5.70;;
1106;SDS011;540;49.448;8.612;2023-07-08T02:39:58;9.80;;;5.70;;
1106;SDS011;540;49.448;8.612;2023-07-08T02:42:26;8.30;;;4.35;;
1106;SDS011;540;49.448;8.612;2023-07-08T02:44:55;8.10;;;4.97;;
1106;SDS011;540;49.448;8.612;2023-07-08T02:47:23;8.07;;;5.20;;
1106;SDS011;540;49.448;8.612;2023-07-08T02:49:51;8.40;;;5.05;;
1106;SDS011;540;49.448;8.612;2023-07-08T02:52:20;8.35;;;5.30;;
1106;SDS011;540;49.448;8.612;2023-07-08T02:54:48;10.82;;;5.82;;
1106;SDS011;540;49.448;8.612;2023-07-08T02:57:16;10.48;;;5.55;;
1106;SDS011;540;49.448;8.612;2023-07-08T02:59:44;9.25;;;5.68;;
1106;SDS011;540;49.448;8.612;2023-07-08T03:02:13;10.98;;;5.70;;
1106;SDS011;540;49.448;8.612;2023-07-08T03:04:41;11.38;;;6.25;;
1106;SDS011;540;49.448;8.612;2023-07-08T03:07:10;10.48;;;6.20;;
1106;SDS011;540;49.448;8.612;2023-07-08T03:09:38;10.75;;;6.28;;
1106;SDS011;540;49.448;8.612;2023-07-08T03:12:06;11.80;;;6.07;;
1106;SDS011;540;49.448;8.612;2023-07-08T03:14:35;11.18;;;5.43;;
1106;SDS011;540;49.448;8.612;2023-07-08T03:17:03;15.43;;;5.70;;
1106;SDS011;540;49.448;8.612;2023-07-08T03:19:33;16.23;;;5.95;;
1106;SDS011;540;49.448;8.612;2023-07-08T03:22:01;10.73;;;6.20;;
1106;SDS011;540;49.448;8.612;2023-07-08T03:24:31;10.98;;;6.30;;
1106;SDS011;540;49.448;8.612;2023-07-08T03:26:59;14.88;;;6.93;;
1106;SDS011;540;49.448;8.612;2023-07-08T03:29:31;10.63;;;5.80;;
1106;SDS011;540;49.448;8.612;2023-07-08T03:31:59;9.68;;;6.13;;
1106;SDS011;540;49.448;8.612;2023-07-08T03:34:26;13.23;;;6.97;;
1106;SDS011;540;49.448;8.612;2023-07-08T03:36:55;11.27;;;6.75;;
1106;SDS011;540;49.448;8.612;2023-07-08T03:39:23;10.88;;;5.95;;
1106;SDS011;540;49.448;8.612;2023-07-08T03:41:52;8.95;;;5.28;;
1106;SDS011;540;49.448;8.612;2023-07-08T03:44:20;12.98;;;6.38;;
1106;SDS011;540;49.448;8.612;2023-07-08T03:46:48;10.40;;;6.53;;
1106;SDS011;540;49.448;8.612;2023-07-08T03:49:17;10.77;;;6.72;;
1106;SDS011;540;49.448;8.612;2023-07-08T03:51:48;15.68;;;6.72;;
1106;SDS011;540;49.448;8.612;2023-07-08T03:54:19;13.32;;;6.95;;
1106;SDS011;540;49.448;8.612;2023-07-08T03:56:48;14.57;;;6.40;;
1106;SDS011;540;49.448;8.612;2023-07-08T03:59:16;17.95;;;8.07;;
1106;SDS011;540;49.448;8.612;2023-07-08T04:01:44;12.88;;;7.72;;
1106;SDS011;540;49.448;8.612;2023-07-08T04:04:13;12.10;;;6.80;;
1106;SDS011;540;49.448;8.612;2023-07-08T04:06:42;11.00;;;6.57;;
1106;SDS011;540;49.448;8.612;2023-07-08T04:09:11;13.38;;;6.72;;
1106;SDS011;540;49.448;8.612;2023-07-08T04:11:41;12.02;;;6.65;;
1106;SDS011;540;49.448;8.612;2023-07-08T04:14:09;10.30;;;6.60;;
1106;SDS011;540;49.448;8.612;2023-07-08T04:16:44;10.35;;;6.50;;
1106;SDS011;540;49.448;8.612;2023-07-08T04:19:15;12.05;;;7.00;;
1106;SDS011;540;49.448;8.612;2023-07-08T04:21:43;12.77;;;6.45;;
1106;SDS011;540;49.448;8.612;2023-07-08T04:24:13;11.35;;;6.93;;
1106;SDS011;540;49.448;8.612;2023-07-08T04:26:43;10.55;;;6.55;;
1106;SDS011;540;49.448;8.612;2023-07-08T04:29:13;11.18;;;6.13;;
1106;SDS011;540;49.448;8.612;2023-07-08T04:31:42;13.77;;;7.97;;
1106;SDS011;540;49.448;8.612;2023-07-08T04:34:11;13.77;;;6.97;;
1106;SDS011;540;49.448;8.612;2023-07-08T04:36:39;12.95;;;6.25;;
1106;SDS011;540;49.448;8.612;2023-07-08T04:39:07;10.93;;;6.72;;
1106;SDS011;540;49.448;8.612;2023-07-08T04:41:36;13.63;;;7.55;;
1106;SDS011;540;49.448;8.612;2023-07-08T04:44:08;14.52;;;6.75;;
1106;SDS011;540;49.448;8.612;2023-07-08T04:46:38;11.35;;;6.22;;
1106;SDS011;540;49.448;8.612;2023-07-08T04:49:09;12.32;;;7.05;;
1106;SDS011;540;49.448;8.612;2023-07-08T04:51:37;14.02;;;5.82;;
1106;SDS011;540;49.448;8.612;2023-07-08T04:54:05;17.10;;;8.30;;
1106;SDS011;540;49.448;8.612;2023-07-08T04:56:35;12.15;;;7.20;;
1106;SDS011;540;49.448;8.612;2023-07-08T04:59:05;25.05;;;9.18;;
1106;SDS011;540;49.448;8.612;2023-07-08T05:01:34;15.88;;;7.18;;
1106;SDS011;540;49.448;8.612;2023-07-08T05:04:02;10.57;;;6.32;;
1106;SDS011;540;49.448;8.612;2023-07-08T05:06:32;13.38;;;7.00;;
1106;SDS011;540;49.448;8.612;2023-07-08T05:09:01;12.35;;;7.32;;
1106;SDS011;540;49.448;8.612;2023-07-08T05:11:30;16.10;;;7.95;;
1106;SDS011;540;49.448;8.612;2023-07-08T05:13:59;14.43;;;9.10;;
1106;SDS011;540;49.448;8.612;2023-07-08T05:16:27;18.02;;;8.77;;
1106;SDS011;540;49.448;8.612;2023-07-08T05:18:56;13.80;;;8.00;;
1106;SDS011;540;49.448;8.612;2023-07-08T05:21:24;14.15;;;6.35;;
1106;SDS011;540;49.448;8.612;2023-07-08T05:23:53;15.98;;;7.68;;
1106;SDS011;540;49.448;8.612;2023-07-08T05:26:21;13.98;;;6.97;;
1106;SDS011;540;49.448;8.612;2023-07-08T05:28:49;9.50;;;5.90;;
1106;SDS011;540;49.448;8.612;2023-07-08T05:31:17;14.65;;;6.40;;
1106;SDS011;540;49.448;8.612;2023-07-08T05:33:45;9.57;;;6.35;;
1106;SDS011;540;49.448;8.612;2023-07-08T05:36:14;14.07;;;7.68;;
1106;SDS011;540;49.448;8.612;2023-07-08T05:38:42;13.63;;;7.00;;
1106;SDS011;540;49.448;8.612;2023-07-08T05:41:10;15.02;;;7.10;;
1106;SDS011;540;49.448;8.612;2023-07-08T05:43:38;11.63;;;7.80;;
1106;SDS011;540;49.448;8.612;2023-07-08T05:46:07;14.00;;;6.95;;
1106;SDS011;540;49.448;8.612;2023-07-08T05:48:38;12.38;;;7.03;;
1106;SDS011;540;49.448;8.612;2023-07-08T05:51:06;17.30;;;7.50;;
1106;SDS011;540;49.448;8.612;2023-07-08T05:53:35;12.52;;;7.32;;
1106;SDS011;540;49.448;8.612;2023-07-08T05:56:03;12.05;;;7.88;;
1106;SDS011;540;49.448;8.612;2023-07-08T05:58:31;16.30;;;8.63;;
1106;SDS011;540;49.448;8.612;2023-07-08T06:00:59;14.07;;;8.43;;
1106;SDS011;540;49.448;8.612;2023-07-08T06:03:28;12.38;;;6.97;;
1106;SDS011;540;49.448;8.612;2023-07-08T06:05:56;10.60;;;6.53;;
1106;SDS011;540;49.448;8.612;2023-07-08T06:08:24;20.40;;;7.55;;
1106;SDS011;540;49.448;8.612;2023-07-08T06:10:53;13.70;;;6.55;;
1106;SDS011;540;49.448;8.612;2023-07-08T06:13:21;10.32;;;6.50;;
1106;SDS011;540;49.448;8.612;2023-07-08T06:15:48;12.93;;;6.93;;
1106;SDS011;540;49.448;8.612;2023-07-08T06:18:16;11.93;;;6.55;;
1106;SDS011;540;49.448;8.612;2023-07-08T06:20:50;9.60;;;6.50;;
1106;SDS011;540;49.448;8.612;2023-07-08T06:23:18;13.07;;;6.43;;
1106;SDS011;540;49.448;8.612;2023-07-08T06:25:46;12.82;;;6.20;;
1106;SDS011;540;49.448;8.612;2023-07-08T06:28:15;10.48;;;5.95;;
1106;SDS011;540;49.448;8.612;2023-07-08T06:30:44;9.38;;;4.95;;
1106;SDS011;540;49.448;8.612;2023-07-08T06:33:11;13.10;;;5.72;;
1106;SDS011;540;49.448;8.612;2023-07-08T06:35:40;11.77;;;5.18;;
1106;SDS011;540;49.448;8.612;2023-07-08T06:38:08;7.95;;;5.57;;
1106;SDS011;540;49.448;8.612;2023-07-08T06:40:37;12.32;;;5.15;;
1106;SDS011;540;49.448;8.612;2023-07-08T06:43:05;9.23;;;5.10;;
1106;SDS011;540;49.448;8.612;2023-07-08T06:45:34;9.02;;;5.55;;
1106;SDS011;540;49.448;8.612;2023-07-08T06:48:02;8.95;;;5.43;;
1106;SDS011;540;49.448;8.612;2023-07-08T06:50:30;10.77;;;5.57;;
1106;SDS011;540;49.448;8.612;2023-07-08T06:52:58;9.57;;;5.90;;
1106;SDS011;540;49.448;8.612;2023-07-08T06:55:26;8.18;;;5.47;;
1106;SDS011;540;49.448;8.612;2023-07-08T06:57:56;9.70;;;5.28;;
1106;SDS011;540;49.448;8.612;2023-07-08T07:00:24;11.55;;;5.03;;
1106;SDS011;540;49.448;8.612;2023-07-08T07:02:53;12.63;;;5.20;;
1106;SDS011;540;49.448;8.612;2023-07-08T07:05:21;10.15;;;5.60;;
1106;SDS011;540;49.448;8.612;2023-07-08T07:07:49;10.65;;;5.82;;
1106;SDS011;540;49.448;8.612;2023-07-08T07:10:18;7.30;;;5.00;;
1106;SDS011;540;49.448;8.612;2023-07-08T07:12:46;8.50;;;4.88;;
1106;SDS011;540;49.448;8.612;2023-07-08T07:15:14;7.97;;;5.28;;
1106;SDS011;540;49.448;8.612;2023-07-08T07:17:42;9.05;;;5.28;;
1106;SDS011;540;49.448;8.612;2023-07-08T07:20:12;6.07;;;4.53;;
1106;SDS011;540;49.448;8.612;2023-07-08T07:22:40;8.05;;;4.22;;
1106;SDS011;540;49.448;8.612;2023-07-08T07:25:08;8.10;;;4.50;;
1106;SDS011;540;49.448;8.612;2023-07-08T07:27:36;9.88;;;4.53;;
1106;SDS011;540;49.448;8.612;2023-07-08T07:30:04;7.07;;;4.15;;
1106;SDS011;540;49.448;8.612;2023-07-08T07:32:32;7.80;;;4.65;;
1106;SDS011;540;49.448;8.612;2023-07-08T07:35:01;7.05;;;4.60;;
1106;SDS011;540;49.448;8.612;2023-07-08T07:37:30;7.43;;;4.35;;
1106;SDS011;540;49.448;8.612;2023-07-08T07:39:58;8.38;;;4.97;;
1106;SDS011;540;49.448;8.612;2023-07-08T07:42:27;8.55;;;4.10;;
1106;SDS011;540;49.448;8.612;2023-07-08T07:44:55;7.60;;;4.63;;
1106;SDS011;540;49.448;8.612;2023-07-08T07:47:23;6.53;;;4.30;;
1106;SDS011;540;49.448;8.612;2023-07-08T07:49:52;6.03;;;4.47;;
1106;SDS011;540;49.448;8.612;2023-07-08T07:52:20;7.20;;;4.72;;
1106;SDS011;540;49.448;8.612;2023-07-08T07:54:52;6.78;;;4.38;;
1106;SDS011;540;49.448;8.612;2023-07-08T07:57:20;8.50;;;4.05;;
1106;SDS011;540;49.448;8.612;2023-07-08T07:59:48;7.97;;;4.00;;
1106;SDS011;540;49.448;8.612;2023-07-08T08:02:17;6.07;;;4.03;;
1106;SDS011;540;49.448;8.612;2023-07-08T08:04:46;8.25;;;4.32;;
1106;SDS011;540;49.448;8.612;2023-07-08T08:07:15;10.43;;;4.85;;
1106;SDS011;540;49.448;8.612;2023-07-08T08:09:44;13.07;;;5.03;;
1106;SDS011;540;49.448;8.612;2023-07-08T08:12:15;7.80;;;4.32;;
1106;SDS011;540;49.448;8.612;2023-07-08T08:14:45;7.78;;;4.50;;
1106;SDS011;540;49.448;8.612;2023-07-08T08:17:14;7.47;;;4.53;;
1106;SDS011;540;49.448;8.612;2023-07-08T08:19:42;7.60;;;4.05;;
1106;SDS011;540;49.448;8.612;2023-07-08T08:22:11;7.60;;;4.25;;
1106;SDS011;540;49.448;8.612;2023-07-08T08:24:40;6.82;;;4.25;;
1106;SDS011;540;49.448;8.612;2023-07-08T08:27:10;6.85;;;3.83;;
1106;SDS011;540;49.448;8.612;2023-07-08T08:29:39;7.93;;;4.22;;
1106;SDS011;540;49.448;8.612;2023-07-08T08:32:11;6.45;;;3.70;;
1106;SDS011;540;49.448;8.612;2023-07-08T08:34:40;8.10;;;3.60;;
1106;SDS011;540;49.448;8.612;2023-07-08T08:37:08;6.85;;;3.33;;
1106;SDS011;540;49.448;8.612;2023-07-08T08:39:36;7.47;;;3.40;;
1106;SDS011;540;49.448;8.612;2023-07-08T08:42:04;4.97;;;3.25;;
1106;SDS011;540;49.448;8.612;2023-07-08T08:44:38;7.60;;;3.88;;
1106;SDS011;540;49.448;8.612;2023-07-08T08:47:12;5.75;;;2.92;;
1106;SDS011;540;49.448;8.612;2023-07-08T08:49:57;5.05;;;2.70;;
1106;SDS011;540;49.448;8.612;2023-07-08T08:52:29;5.07;;;2.80;;
1106;SDS011;540;49.448;8.612;2023-07-08T08:54:57;5.57;;;2.67;;
1106;SDS011;540;49.448;8.612;2023-07-08T08:57:31;6.78;;;2.83;;
1106;SDS011;540;49.448;8.612;2023-07-08T09:00:07;4.50;;;3.10;;
1106;SDS011;540;49.448;8.612;2023-07-08T09:02:39;3.45;;;2.65;;
1106;SDS011;540;49.448;8.612;2023-07-08T09:05:13;4.22;;;2.30;;
1106;SDS011;540;49.448;8.612;2023-07-08T09:07:43;4.72;;;2.58;;
1106;SDS011;540;49.448;8.612;2023-07-08T09:10:19;5.18;;;2.67;;
1106;SDS011;540;49.448;8.612;2023-07-08T09:12:59;5.18;;;2.60;;
1106;SDS011;540;49.448;8.612;2023-07-08T09:15:32;6.10;;;2.65;;
1106;SDS011;540;49.448;8.612;2023-07-08T09:18:03;5.05;;;2.50;;
1106;SDS011;540;49.448;8.612;2023-07-08T09:20:40;6.68;;;3.05;;
1106;SDS011;540;49.448;8.612;2023-07-08T09:23:11;3.65;;;2.90;;
1106;SDS011;540;49.448;8.612;2023-07-08T09:25:49;6.00;;;2.70;;
1106;SDS011;540;49.448;8.612;2023-07-08T09:28:20;4.70;;;2.72;;
1106;SDS011;540;49.448;8.612;2023-07-08T09:30:51;4.60;;;2.97;;
1106;SDS011;540;49.448;8.612;2023-07-08T09:33:20;6.05;;;3.28;;
1106;SDS011;540;49.448;8.612;2023-07-08T09:35:51;5.13;;;2.97;;
1106;SDS011;540;49.448;8.612;2023-07-08T09:38:21;6.07;;;2.80;;
1106;SDS011;540;49.448;8.612;2023-07-08T09:40:50;6.85;;;3.17;;
1106;SDS011;540;49.448;8.612;2023-07-08T09:43:24;6.30;;;2.65;;
1106;SDS011;540;49.448;8.612;2023-07-08T09:45:57;4.15;;;3.03;;
1106;SDS011;540;49.448;8.612;2023-07-08T09:48:27;6.80;;;3.15;;
1106;SDS011;540;49.448;8.612;2023-07-08T09:50:56;5.57;;;3.33;;
1106;SDS011;540;49.448;8.612;2023-07-08T09:53:26;5.63;;;3.67;;
1106;SDS011;540;49.448;8.612;2023-07-08T09:55:56;6.90;;;3.05;;
1106;SDS011;540;49.448;8.612;2023-07-08T09:58:27;5.90;;;3.45;;
1106;SDS011;540;49.448;8.612;2023-07-08T10:01:00;4.40;;;2.88;;
1106;SDS011;540;49.448;8.612;2023-07-08T10:03:37;4.55;;;3.13;;
1106;SDS011;540;49.448;8.612;2023-07-08T10:06:14;6.13;;;3.60;;
1106;SDS011;540;49.448;8.612;2023-07-08T10:08:44;5.35;;;3.30;;
1106;SDS011;540;49.448;8.612;2023-07-08T10:11:15;8.90;;;3.63;;
1106;SDS011;540;49.448;8.612;2023-07-08T10:13:52;5.32;;;3.55;;
1106;SDS011;540;49.448;8.612;2023-07-08T10:16:40;5.97;;;3.53;;
1106;SDS011;540;49.448;8.612;2023-07-08T10:19:09;8.38;;;4.38;;
1106;SDS011;540;49.448;8.612;2023-07-08T10:21:42;7.30;;;3.80;;
1106;SDS011;540;49.448;8.612;2023-07-08T10:24:20;5.65;;;3.50;;
1106;SDS011;540;49.448;8.612;2023-07-08T10:26:57;4.70;;;3.40;;
1106;SDS011;540;49.448;8.612;2023-07-08T10:29:48;7.13;;;3.80;;
1106;SDS011;540;49.448;8.612;2023-07-08T10:32:26;5.75;;;3.53;;
1106;SDS011;540;49.448;8.612;2023-07-08T10:35:03;9.05;;;3.50;;
1106;SDS011;540;49.448;8.612;2023-07-08T10:37:41;8.40;;;3.35;;
1106;SDS011;540;49.448;8.612;2023-07-08T10:40:21;6.68;;;3.60;;
1106;SDS011;540;49.448;8.612;2023-07-08T10:43:15;6.43;;;3.30;;
1106;SDS011;540;49.448;8.612;2023-07-08T10:45:57;6.80;;;3.65;;
1106;SDS011;540;49.448;8.612;2023-07-08T10:48:44;5.80;;;3.55;;
1106;SDS011;540;49.448;8.612;2023-07-08T10:51:35;5.57;;;4.18;;
1106;SDS011;540;49.448;8.612;2023-07-08T10:54:19;5.07;;;4.50;;
1106;SDS011;540;49.448;8.612;2023-07-08T10:56:57;7.82;;;4.20;;
1106;SDS011;540;49.448;8.612;2023-07-08T10:59:39;5.88;;;3.50;;
1106;SDS011;540;49.448;8.612;2023-07-08T11:02:22;7.95;;;3.85;;
1106;SDS011;540;49.448;8.612;2023-07-08T11:05:14;4.90;;;3.15;;
1106;SDS011;540;49.448;8.612;2023-07-08T11:07:52;5.07;;;3.72;;
1106;SDS011;540;49.448;8.612;2023-07-08T11:10:27;4.68;;;3.60;;
1106;SDS011;540;49.448;8.612;2023-07-08T11:13:03;5.63;;;3.60;;
1106;SDS011;540;49.448;8.612;2023-07-08T11:15:40;6.53;;;3.85;;
1106;SDS011;540;49.448;8.612;2023-07-08T11:18:15;5.00;;;3.95;;
1106;SDS011;540;49.448;8.612;2023-07-08T11:20:55;6.28;;;3.92;;
1106;SDS011;540;49.448;8.612;2023-07-08T11:23:29;7.70;;;3.83;;
1106;SDS011;540;49.448;8.612;2023-07-08T11:26:05;5.70;;;3.60;;
1106;SDS011;540;49.448;8.612;2023-07-08T11:28:41;6.70;;;3.97;;
1106;SDS011;540;49.448;8.612;2023-07-08T11:31:10;6.95;;;3.67;;
1106;SDS011;540;49.448;8.612;2023-07-08T11:33:41;4.88;;;3.53;;
1106;SDS011;540;49.448;8.612;2023-07-08T11:36:11;4.40;;;3.20;;
1106;SDS011;540;49.448;8.612;2023-07-08T11:38:47;7.43;;;4.43;;
1106;SDS011;540;49.448;8.612;2023-07-08T11:43:47;6.40;;;3.88;;
1106;SDS011;540;49.448;8.612;2023-07-08T11:46:19;7.25;;;3.67;;
1106;SDS011;540;49.448;8.612;2023-07-08T11:48:52;10.50;;;3.47;;
1106;SDS011;540;49.448;8.612;2023-07-08T11:51:26;4.88;;;3.20;;
1106;SDS011;540;49.448;8.612;2023-07-08T11:54:00;9.02;;;3.47;;
1106;SDS011;540;49.448;8.612;2023-07-08T11:56:46;6.90;;;3.72;;
1106;SDS011;540;49.448;8.612;2023-07-08T11:59:18;6.68;;;4.15;;
1106;SDS011;540;49.448;8.612;2023-07-08T12:01:51;5.95;;;4.18;;
1106;SDS011;540;49.448;8.612;2023-07-08T12:04:27;7.15;;;4.40;;
1106;SDS011;540;49.448;8.612;2023-07-08T12:07:11;6.13;;;3.55;;
1106;SDS011;540;49.448;8.612;2023-07-08T12:09:47;7.10;;;4.10;;
1106;SDS011;540;49.448;8.612;2023-07-08T12:12:19;6.10;;;4.07;;
1106;SDS011;540;49.448;8.612;2023-07-08T12:17:21;6.85;;;4.03;;
1106;SDS011;540;49.448;8.612;2023-07-08T12:19:50;6.25;;;4.20;;
1106;SDS011;540;49.448;8.612;2023-07-08T12:22:21;6.20;;;3.75;;
1106;SDS011;540;49.448;8.612;2023-07-08T12:24:50;6.55;;;3.75;;
1106;SDS011;540;49.448;8.612;2023-07-08T12:27:18;6.05;;;3.85;;
1106;SDS011;540;49.448;8.612;2023-07-08T12:29:48;7.80;;;3.90;;
1106;SDS011;540;49.448;8.612;2023-07-08T12:32:17;5.40;;;4.07;;
1106;SDS011;540;49.448;8.612;2023-07-08T12:34:49;5.22;;;3.72;;
1106;SDS011;540;49.448;8.612;2023-07-08T12:37:17;7.25;;;4.03;;
1106;SDS011;540;49.448;8.612;2023-07-08T12:39:54;5.05;;;3.85;;
1106;SDS011;540;49.448;8.612;2023-07-08T12:42:26;4.45;;;3.50;;
1106;SDS011;540;49.448;8.612;2023-07-08T12:44:54;9.32;;;3.55;;
1106;SDS011;540;49.448;8.612;2023-07-08T12:47:22;7.07;;;4.30;;
1106;SDS011;540;49.448;8.612;2023-07-08T12:49:50;7.13;;;3.85;;
1106;SDS011;540;49.448;8.612;2023-07-08T12:52:20;4.80;;;3.03;;
1106;SDS011;540;49.448;8.612;2023-07-08T12:54:49;5.68;;;3.70;;
1106;SDS011;540;49.448;8.612;2023-07-08T12:57:19;7.35;;;4.07;;
1106;SDS011;540;49.448;8.612;2023-07-08T12:59:47;6.88;;;3.65;;
1106;SDS011;540;49.448;8.612;2023-07-08T13:02:15;5.95;;;4.00;;
1106;SDS011;540;49.448;8.612;2023-07-08T13:04:46;8.32;;;4.05;;
1106;SDS011;540;49.448;8.612;2023-07-08T13:07:22;6.60;;;3.65;;
1106;SDS011;540;49.448;8.612;2023-07-08T13:09:55;14.10;;;4.65;;
1106;SDS011;540;49.448;8.612;2023-07-08T13:12:25;6.30;;;3.95;;
1106;SDS011;540;49.448;8.612;2023-07-08T13:14:54;5.13;;;3.80;;
1106;SDS011;540;49.448;8.612;2023-07-08T13:17:25;7.75;;;3.97;;
1106;SDS011;540;49.448;8.612;2023-07-08T13:19:57;4.93;;;3.70;;
1106;SDS011;540;49.448;8.612;2023-07-08T13:22:25;6.85;;;3.65;;
1106;SDS011;540;49.448;8.612;2023-07-08T13:24:59;6.90;;;3.55;;
1106;SDS011;540;49.448;8.612;2023-07-08T13:27:30;6.07;;;3.72;;
1106;SDS011;540;49.448;8.612;2023-07-08T13:30:06;5.20;;;3.63;;
1106;SDS011;540;49.448;8.612;2023-07-08T13:32:44;5.20;;;3.22;;
1106;SDS011;540;49.448;8.612;2023-07-08T13:35:22;3.90;;;3.33;;
1106;SDS011;540;49.448;8.612;2023-07-08T13:37:53;9.23;;;3.25;;
1106;SDS011;540;49.448;8.612;2023-07-08T13:40:26;8.25;;;3.40;;
1106;SDS011;540;49.448;8.612;2023-07-08T13:42:56;5.68;;;3.05;;
1106;SDS011;540;49.448;8.612;2023-07-08T13:45:30;4.60;;;3.00;;
1106;SDS011;540;49.448;8.612;2023-07-08T13:48:08;8.68;;;3.85;;
1106;SDS011;540;49.448;8.612;2023-07-08T13:50:43;5.13;;;3.13;;
1106;SDS011;540;49.448;8.612;2023-07-08T13:53:16;6.45;;;2.97;;
1106;SDS011;540;49.448;8.612;2023-07-08T13:55:48;7.85;;;3.60;;
1106;SDS011;540;49.448;8.612;2023-07-08T13:58:26;5.55;;;3.53;;
1106;SDS011;540;49.448;8.612;2023-07-08T14:00:56;5.25;;;3.05;;
1106;SDS011;540;49.448;8.612;2023-07-08T14:03:26;4.95;;;3.13;;
1106;SDS011;540;49.448;8.612;2023-07-08T14:05:54;5.05;;;2.60;;
1106;SDS011;540;49.448;8.612;2023-07-08T14:08:22;5.45;;;3.78;;
1106;SDS011;540;49.448;8.612;2023-07-08T14:10:51;5.60;;;3.58;;
1106;SDS011;540;49.448;8.612;2023-07-08T14:13:19;6.07;;;2.75;;
1106;SDS011;540;49.448;8.612;2023-07-08T14:15:49;5.80;;;3.53;;
1106;SDS011;540;49.448;8.612;2023-07-08T14:18:17;7.43;;;3.17;;
1106;SDS011;540;49.448;8.612;2023-07-08T14:20:45;4.57;;;3.28;;
1106;SDS011;540;49.448;8.612;2023-07-08T14:23:13;9.15;;;3.42;;
1106;SDS011;540;49.448;8.612;2023-07-08T14:25:41;4.82;;;2.72;;
1106;SDS011;540;49.448;8.612;2023-07-08T14:28:09;6.13;;;3.42;;
1106;SDS011;540;49.448;8.612;2023-07-08T14:30:39;7.32;;;3.10;;
1106;SDS011;540;49.448;8.612;2023-07-08T14:33:11;7.15;;;3.10;;
1106;SDS011;540;49.448;8.612;2023-07-08T14:35:39;4.38;;;3.10;;
1106;SDS011;540;49.448;8.612;2023-07-08T14:38:09;9.65;;;2.90;;
1106;SDS011;540;49.448;8.612;2023-07-08T14:40:39;3.70;;;2.65;;
1106;SDS011;540;49.448;8.612;2023-07-08T14:43:10;5.70;;;2.53;;
1106;SDS011;540;49.448;8.612;2023-07-08T14:45:43;6.33;;;2.80;;
1106;SDS011;540;49.448;8.612;2023-07-08T14:48:15;5.80;;;2.92;;
1106;SDS011;540;49.448;8.612;2023-07-08T14:50:43;5.70;;;2.80;;
1106;SDS011;540;49.448;8.612;2023-07-08T14:53:12;4.53;;;2.83;;
1106;SDS011;540;49.448;8.612;2023-07-08T14:55:41;4.90;;;3.35;;
1106;SDS011;540;49.448;8.612;2023-07-08T14:58:10;6.82;;;3.13;;
1106;SDS011;540;49.448;8.612;2023-07-08T15:00:47;5.00;;;2.95;;
1106;SDS011;540;49.448;8.612;2023-07-08T15:03:16;8.23;;;2.92;;
1106;SDS011;540;49.448;8.612;2023-07-08T15:05:45;4.53;;;2.63;;
1106;SDS011;540;49.448;8.612;2023-07-08T15:08:13;3.88;;;2.30;;
1106;SDS011;540;49.448;8.612;2023-07-08T15:10:43;7.00;;;2.67;;
1106;SDS011;540;49.448;8.612;2023-07-08T15:13:12;4.50;;;3.08;;
1106;SDS011;540;49.448;8.612;2023-07-08T15:15:40;6.93;;;3.30;;
1106;SDS011;540;49.448;8.612;2023-07-08T15:18:10;4.20;;;2.70;;
1106;SDS011;540;49.448;8.612;2023-07-08T15:20:45;6.88;;;3.15;;
1106;SDS011;540;49.448;8.612;2023-07-08T15:23:35;5.55;;;2.85;;
1106;SDS011;540;49.448;8.612;2023-07-08T15:26:22;4.05;;;2.72;;
1106;SDS011;540;49.448;8.612;2023-07-08T15:28:52;4.10;;;2.47;;
1106;SDS011;540;49.448;8.612;2023-07-08T15:31:23;5.53;;;2.75;;
1106;SDS011;540;49.448;8.612;2023-07-08T15:33:58;4.05;;;2.33;;
1106;SDS011;540;49.448;8.612;2023-07-08T15:36:38;3.97;;;2.53;;
1106;SDS011;540;49.448;8.612;2023-07-08T15:39:06;4.70;;;2.40;;
1106;SDS011;540;49.448;8.612;2023-07-08T15:41:36;4.13;;;2.50;;
1106;SDS011;540;49.448;8.612;2023-07-08T15:44:07;5.18;;;2.70;;
1106;SDS011;540;49.448;8.612;2023-07-08T15:46:37;3.95;;;2.33;;
1106;SDS011;540;49.448;8.612;2023-07-08T15:49:12;5.07;;;2.17;;
1106;SDS011;540;49.448;8.612;2023-07-08T15:51:45;3.63;;;2.58;;
1106;SDS011;540;49.448;8.612;2023-07-08T15:54:16;4.53;;;2.35;;
1106;SDS011;540;49.448;8.612;2023-07-08T15:56:47;3.53;;;2.50;;